Time;durP1;ratioP1;P1;durP2;ratioP2;P2;SDS_P1;SDS_P2;PMS_P1;PMS_P2;Temp;Humidity;BMP_temperature;BMP_pressure;BME280_temperature;BME280_humidity;BME280_pressure;Samples;Min_cycle;Max_cycle;Signal;HPM_P1;HPM_P2
2023/01/31 16:20:05;;;;;;;10.38;2.35;;;8.30;99.90;;;;;;5107388;27;20135;-62
2023/01/31 16:22:31;;;;;;;11.48;3.10;;;8.30;99.90;;;;;;5102503;28;20048;-63
2023/01/31 16:24:59;;;;;;;7.00;2.45;;;8.30;99.90;;;;;;5108722;28;20429;-63
2023/01/31 16:27:29;;;;;;;9.65;2.55;;;8.30;99.90;;;;;;5108068;28;20073;-62
2023/01/31 16:29:57;;;;;;;9.37;2.37;;;8.40;99.90;;;;;;5106081;28;20091;-62
2023/01/31 16:32:31;;;;;;;4.47;1.80;;;8.40;99.90;;;;;;5104800;28;20044;-62
2023/01/31 16:35:27;;;;;;;9.65;2.80;;;8.40;99.90;;;;;;5105911;28;20020;-63
2023/01/31 16:38:04;;;;;;;10.02;3.03;;;8.40;99.90;;;;;;5067854;28;20505;-64
2023/01/31 16:40:35;;;;;;;9.35;2.40;;;8.40;99.90;;;;;;5086758;28;20020;-63
2023/01/31 16:43:26;;;;;;;11.77;3.88;;;8.30;99.90;;;;;;5086971;28;20105;-64
2023/01/31 16:45:58;;;;;;;11.48;2.42;;;8.30;99.90;;;;;;5088056;28;20028;-62
2023/01/31 16:48:39;;;;;;;9.77;2.40;;;8.20;99.90;;;;;;5067833;28;20016;-62
2023/01/31 16:51:27;;;;;;;10.77;2.42;;;8.10;99.90;;;;;;5070854;28;20024;-62
2023/01/31 16:54:22;;;;;;;10.98;2.47;;;8.00;99.90;;;;;;5088640;28;20073;-62
2023/01/31 16:57:20;;;;;;;6.65;2.03;;;8.00;99.90;;;;;;5081763;28;20376;-63
2023/01/31 16:59:48;;;;;;;10.20;2.50;;;8.00;99.90;;;;;;5088413;28;20048;-63
2023/01/31 17:02:20;;;;;;;11.98;2.45;;;8.10;99.90;;;;;;5086674;28;20025;-64
2023/01/31 17:04:49;;;;;;;12.38;2.65;;;8.10;99.90;;;;;;5086982;28;20020;-63
2023/01/31 17:07:31;;;;;;;9.93;2.72;;;8.10;99.90;;;;;;5085827;28;20031;-63
2023/01/31 17:10:00;;;;;;;8.07;2.40;;;8.20;99.90;;;;;;5085074;28;20031;-64
2023/01/31 17:12:29;;;;;;;8.63;2.58;;;8.10;99.90;;;;;;5089483;28;20030;-64
2023/01/31 17:14:56;;;;;;;12.88;2.67;;;8.00;99.90;;;;;;5087168;28;20129;-64
2023/01/31 17:17:28;;;;;;;10.45;2.75;;;8.00;99.90;;;;;;5085761;28;20507;-63
2023/01/31 17:19:54;;;;;;;14.15;2.78;;;8.00;99.90;;;;;;5087951;28;20133;-64
2023/01/31 17:22:21;;;;;;;10.10;2.03;;;8.00;99.90;;;;;;5086798;28;20774;-64
2023/01/31 17:24:50;;;;;;;11.45;3.10;;;7.90;99.90;;;;;;5086946;28;20349;-65
2023/01/31 17:27:18;;;;;;;12.63;2.63;;;7.90;99.90;;;;;;5087038;28;20020;-66
2023/01/31 17:29:47;;;;;;;13.93;2.60;;;7.90;99.90;;;;;;5082782;28;20020;-67
2023/01/31 17:32:18;;;;;;;11.95;2.60;;;7.80;99.90;;;;;;5072575;28;20028;-67
2023/01/31 17:34:47;;;;;;;5.82;2.30;;;7.80;99.90;;;;;;5073753;28;20020;-68
2023/01/31 17:37:12;;;;;;;10.60;2.40;;;7.80;99.90;;;;;;5073250;28;20423;-65
2023/01/31 17:39:38;;;;;;;11.82;2.65;;;7.80;99.90;;;;;;5073020;28;20032;-66
2023/01/31 17:42:04;;;;;;;8.07;2.60;;;7.70;99.90;;;;;;5090467;28;20366;-67
2023/01/31 17:44:30;;;;;;;12.23;2.28;;;7.70;99.90;;;;;;5091940;28;20492;-66
2023/01/31 17:46:56;;;;;;;11.43;3.30;;;7.60;99.90;;;;;;5092995;28;20044;-66
2023/01/31 17:49:22;;;;;;;15.60;2.60;;;7.60;99.90;;;;;;5093566;28;20031;-65
2023/01/31 17:51:47;;;;;;;12.93;2.58;;;7.60;99.90;;;;;;5092853;28;20020;-64
2023/01/31 17:54:13;;;;;;;10.10;2.47;;;7.50;99.90;;;;;;5092989;28;20098;-63
2023/01/31 17:56:39;;;;;;;11.05;3.22;;;7.40;99.90;;;;;;5093231;28;20455;-64
2023/01/31 17:59:05;;;;;;;20.23;2.78;;;7.50;99.90;;;;;;5088771;28;20036;-63
2023/01/31 18:01:31;;;;;;;14.15;3.53;;;7.40;99.90;;;;;;5089100;28;20089;-63
2023/01/31 18:03:59;;;;;;;9.55;2.35;;;7.40;99.90;;;;;;5088823;28;20389;-62
2023/01/31 18:06:25;;;;;;;7.78;2.33;;;7.30;99.90;;;;;;5073917;28;20021;-63
2023/01/31 18:08:51;;;;;;;16.85;2.75;;;7.30;99.90;;;;;;5071218;28;20466;-61
2023/01/31 18:11:17;;;;;;;16.08;3.25;;;7.30;99.90;;;;;;5072407;28;20381;-63
2023/01/31 18:13:43;;;;;;;11.50;2.63;;;7.30;99.90;;;;;;5070383;28;20016;-61
2023/01/31 18:16:12;;;;;;;10.23;2.55;;;7.30;99.90;;;;;;5070901;28;20103;-62
2023/01/31 18:18:42;;;;;;;9.32;2.35;;;7.30;99.90;;;;;;5073651;28;20447;-63
2023/01/31 18:21:10;;;;;;;17.23;3.43;;;7.20;99.90;;;;;;5090294;28;20099;-61
2023/01/31 18:23:35;;;;;;;15.85;2.97;;;7.20;99.90;;;;;;5092874;28;20020;-61
2023/01/31 18:26:04;;;;;;;11.60;3.55;;;7.10;99.90;;;;;;5092067;28;20031;-61
2023/01/31 18:28:30;;;;;;;15.18;3.75;;;7.00;99.90;;;;;;5090687;28;20024;-63
2023/01/31 18:31:01;;;;;;;11.73;2.42;;;7.00;99.90;;;;;;5092475;28;20031;-62
2023/01/31 18:33:27;;;;;;;8.38;2.20;;;6.90;99.90;;;;;;5092803;28;20023;-61
2023/01/31 18:35:57;;;;;;;9.55;2.83;;;6.90;99.90;;;;;;5087418;28;20519;-64
2023/01/31 18:38:23;;;;;;;10.37;2.33;;;6.90;99.90;;;;;;5072858;28;20616;-61
2023/01/31 18:40:49;;;;;;;8.85;2.60;;;6.80;99.90;;;;;;5052007;28;20407;-63
2023/01/31 18:43:15;;;;;;;14.85;2.88;;;6.80;99.90;;;;;;5051034;28;20504;-62
2023/01/31 18:45:40;;;;;;;12.88;2.85;;;6.80;99.90;;;;;;5084635;28;20485;-62
2023/01/31 18:48:06;;;;;;;9.90;2.92;;;6.70;99.90;;;;;;5071229;28;20372;-64
2023/01/31 18:50:31;;;;;;;16.67;2.75;;;6.70;99.90;;;;;;5079304;28;20029;-64
2023/01/31 18:52:57;;;;;;;12.88;2.58;;;6.60;99.90;;;;;;5091923;28;20376;-63
2023/01/31 18:55:23;;;;;;;13.35;3.10;;;6.60;99.90;;;;;;5092038;28;20036;-64
2023/01/31 18:57:48;;;;;;;17.70;2.60;;;6.60;99.90;;;;;;5091958;28;20031;-64
2023/01/31 19:00:14;;;;;;;13.85;3.08;;;6.60;99.90;;;;;;5090354;28;20059;-64
2023/01/31 19:02:40;;;;;;;13.60;2.63;;;6.50;99.90;;;;;;5091273;28;20031;-63
2023/01/31 19:05:07;;;;;;;18.27;3.58;;;6.50;99.90;;;;;;5092011;28;20020;-62
2023/01/31 19:07:33;;;;;;;12.60;2.38;;;6.50;99.90;;;;;;5085526;28;20021;-62
2023/01/31 19:09:58;;;;;;;9.07;2.63;;;6.50;99.90;;;;;;5070747;28;20028;-62
2023/01/31 19:12:24;;;;;;;11.70;2.72;;;6.50;99.90;;;;;;5073988;28;20398;-62
2023/01/31 19:14:50;;;;;;;9.00;2.38;;;6.50;99.90;;;;;;5072146;28;20033;-60
2023/01/31 19:17:16;;;;;;;11.07;3.28;;;6.40;99.90;;;;;;5070702;28;20028;-63
2023/01/31 19:19:42;;;;;;;18.15;2.90;;;6.40;99.90;;;;;;5071147;28;20512;-61
2023/01/31 19:22:07;;;;;;;16.60;3.50;;;6.40;99.90;;;;;;5071047;28;20027;-61
2023/01/31 19:24:33;;;;;;;12.95;2.78;;;6.40;99.90;;;;;;5071983;28;20138;-64
2023/01/31 19:26:58;;;;;;;11.35;2.75;;;6.40;99.90;;;;;;5071202;28;20092;-63
2023/01/31 19:29:25;;;;;;;15.77;3.72;;;6.30;99.90;;;;;;5071500;28;20039;-63
2023/01/31 19:31:53;;;;;;;17.90;3.38;;;6.30;99.90;;;;;;5070605;28;20112;-62
2023/01/31 19:34:19;;;;;;;11.65;2.38;;;6.30;99.90;;;;;;5072194;28;20028;-64
2023/01/31 19:36:45;;;;;;;10.23;2.90;;;6.20;99.90;;;;;;5071659;28;20307;-62
2023/01/31 19:39:11;;;;;;;15.13;3.20;;;6.10;99.90;;;;;;5070495;28;20036;-64
2023/01/31 19:41:37;;;;;;;13.10;2.45;;;6.00;99.90;;;;;;5071200;28;20021;-61
2023/01/31 19:44:03;;;;;;;9.98;2.45;;;6.00;99.90;;;;;;5070063;28;20028;-61
2023/01/31 19:46:31;;;;;;;11.80;2.85;;;6.00;99.90;;;;;;5070541;28;20021;-63
2023/01/31 19:48:58;;;;;;;11.07;2.38;;;6.00;99.90;;;;;;5071330;28;20021;-64
2023/01/31 19:51:24;;;;;;;13.90;3.00;;;6.00;99.90;;;;;;5070534;28;20422;-64
2023/01/31 19:53:52;;;;;;;12.82;3.10;;;5.90;99.90;;;;;;5071058;28;20035;-64
2023/01/31 19:56:18;;;;;;;15.63;3.40;;;6.00;99.90;;;;;;5070381;28;20020;-63
2023/01/31 19:58:44;;;;;;;11.93;2.75;;;6.00;99.90;;;;;;5069865;28;20093;-64
2023/01/31 20:01:12;;;;;;;15.55;3.47;;;5.90;99.90;;;;;;5070257;28;20423;-63
2023/01/31 20:03:38;;;;;;;14.00;3.15;;;5.90;99.90;;;;;;5070009;28;20481;-64
2023/01/31 20:06:16;;;;;;;14.75;2.47;;;5.80;99.90;;;;;;5069794;28;20103;-63
2023/01/31 20:08:42;;;;;;;10.55;2.72;;;5.80;99.90;;;;;;5070427;28;20028;-64
2023/01/31 20:11:08;;;;;;;8.98;2.65;;;5.80;99.90;;;;;;5082457;28;20032;-61
2023/01/31 20:13:35;;;;;;;10.40;2.97;;;5.80;99.90;;;;;;5090204;28;20024;-61
2023/01/31 20:16:07;;;;;;;11.85;2.70;;;5.80;99.90;;;;;;5090738;28;20026;-62
2023/01/31 20:18:34;;;;;;;10.52;3.53;;;5.80;99.90;;;;;;5090208;28;20130;-63
2023/01/31 20:21:00;;;;;;;13.02;2.88;;;5.80;99.90;;;;;;5088394;28;20566;-63
2023/01/31 20:23:27;;;;;;;10.88;3.63;;;5.90;99.90;;;;;;5088991;28;20017;-61
2023/01/31 20:25:53;;;;;;;12.32;3.38;;;5.80;99.90;;;;;;5073909;28;20021;-61
2023/01/31 20:28:19;;;;;;;10.32;2.88;;;5.80;99.90;;;;;;5069482;28;20025;-65
2023/01/31 20:30:46;;;;;;;11.77;2.78;;;5.80;99.90;;;;;;5070382;28;20322;-63
2023/01/31 20:33:12;;;;;;;13.70;2.97;;;5.80;99.90;;;;;;5068699;28;20024;-64
